NOZ200 ENGM-ENVA
Flight info
| Callsign | NOZ200 |
|---|---|
| Flight time | 0h 40m |
| Altitude | 30000 |
| Route | RIBBE DCT GIGNI DCT VEVOD |
| Aircraft | B738/M-SDE2E3FGHIRWXY/LB1 |
Departure
| Time | 2026-05-05 21:47 |
|---|---|
| Airport | Oslo-Gardermoen International Airport (ENGM) |
Arrival
| Time | 2026-05-05 22:28 |
|---|---|
| Airport | Trondheim Airport, Værnes (ENVA) |
| Time | Latitude | Longitude | Altitude | Speed | Heading |
|---|---|---|---|---|---|
| 2026-05-05 21:22 | 60.19533 | 11.09655 | 689 ft | 0 kts | 196° |
| 2026-05-05 21:37 | 60.19534 | 11.09655 | 700 ft | 1 kts | 196° |
| 2026-05-05 21:37 | 60.19551 | 11.09665 | 684 ft | 3 kts | 196° |
| 2026-05-05 21:37 | 60.19569 | 11.09676 | 684 ft | 3 kts | 196° |
| 2026-05-05 21:38 | 60.19579 | 11.09681 | 685 ft | 0 kts | 196° |
| 2026-05-05 21:41 | 60.19577 | 11.09667 | 684 ft | 2 kts | 267° |
| 2026-05-05 21:41 | 60.19595 | 11.09590 | 685 ft | 10 kts | 307° |
| 2026-05-05 21:41 | 60.19664 | 11.09461 | 689 ft | 15 kts | 308° |
| 2026-05-05 21:42 | 60.19700 | 11.09269 | 686 ft | 14 kts | 287° |
| 2026-05-05 21:42 | 60.19728 | 11.09074 | 686 ft | 15 kts | 285° |
| 2026-05-05 21:42 | 60.19756 | 11.08881 | 683 ft | 14 kts | 286° |
| 2026-05-05 21:42 | 60.19769 | 11.08697 | 689 ft | 13 kts | 246° |
| 2026-05-05 21:43 | 60.19690 | 11.08625 | 686 ft | 14 kts | 196° |
| 2026-05-05 21:43 | 60.19571 | 11.08558 | 685 ft | 20 kts | 195° |
| 2026-05-05 21:43 | 60.19435 | 11.08480 | 685 ft | 21 kts | 195° |
| 2026-05-05 21:43 | 60.19290 | 11.08397 | 686 ft | 22 kts | 196° |
| 2026-05-05 21:44 | 60.19140 | 11.08313 | 687 ft | 22 kts | 196° |
| 2026-05-05 21:44 | 60.18993 | 11.08228 | 687 ft | 22 kts | 196° |
| 2026-05-05 21:44 | 60.18977 | 11.08219 | 689 ft | 22 kts | 196° |
| 2026-05-05 21:44 | 60.18969 | 11.08214 | 686 ft | 22 kts | 196° |
| 2026-05-05 21:45 | 60.18826 | 11.08133 | 684 ft | 21 kts | 196° |
| 2026-05-05 21:45 | 60.18688 | 11.08055 | 687 ft | 20 kts | 196° |
| 2026-05-05 21:45 | 60.18564 | 11.07980 | 687 ft | 14 kts | 208° |
| 2026-05-05 21:45 | 60.18550 | 11.07804 | 686 ft | 14 kts | 285° |
| 2026-05-05 21:46 | 60.18576 | 11.07624 | 687 ft | 13 kts | 287° |
| 2026-05-05 21:46 | 60.18630 | 11.07492 | 687 ft | 13 kts | 343° |
| 2026-05-05 21:46 | 60.18730 | 11.07519 | 689 ft | 16 kts | 14° |
| 2026-05-05 21:46 | 60.18888 | 11.07609 | 682 ft | 48 kts | 15° |
| 2026-05-05 21:47 | 60.19487 | 11.07957 | 682 ft | 129 kts | 15° |
| 2026-05-05 21:47 | 60.20561 | 11.08444 | 1009 ft | 170 kts | 7° |
| 2026-05-05 21:47 | 60.21766 | 11.08972 | 1883 ft | 188 kts | 9° |
| 2026-05-05 21:47 | 60.23045 | 11.09646 | 2858 ft | 193 kts | 11° |
| 2026-05-05 21:48 | 60.23937 | 11.10171 | 3214 ft | 203 kts | 13° |
| 2026-05-05 21:48 | 60.25850 | 11.11299 | 3587 ft | 228 kts | 6° |
| 2026-05-05 21:48 | 60.27436 | 11.11096 | 4039 ft | 237 kts | 347° |
| 2026-05-05 21:48 | 60.29124 | 11.10532 | 4533 ft | 252 kts | 347° |
| 2026-05-05 21:49 | 60.30860 | 11.09964 | 5475 ft | 253 kts | 348° |
| 2026-05-05 21:49 | 60.32607 | 11.09409 | 6366 ft | 256 kts | 348° |
| 2026-05-05 21:49 | 60.33799 | 11.09048 | 6948 ft | 259 kts | 351° |
| 2026-05-05 21:49 | 60.35616 | 11.09503 | 7745 ft | 271 kts | 16° |
| 2026-05-05 21:50 | 60.37372 | 11.10970 | 8609 ft | 276 kts | 20° |
| 2026-05-05 21:50 | 60.39151 | 11.12532 | 9387 ft | 282 kts | 19° |
| 2026-05-05 21:50 | 60.40961 | 11.14132 | 10180 ft | 286 kts | 20° |
| 2026-05-05 21:50 | 60.42858 | 11.15802 | 10451 ft | 309 kts | 20° |
| 2026-05-05 21:51 | 60.44902 | 11.17595 | 10670 ft | 331 kts | 20° |
| 2026-05-05 21:51 | 60.47060 | 11.19490 | 11183 ft | 341 kts | 20° |
| 2026-05-05 21:51 | 60.49220 | 11.21390 | 11923 ft | 345 kts | 20° |
| 2026-05-05 21:51 | 60.49333 | 11.21490 | 11966 ft | 345 kts | 20° |
| 2026-05-05 21:52 | 60.52248 | 11.24055 | 13065 ft | 347 kts | 20° |
| 2026-05-05 21:52 | 60.54470 | 11.26009 | 13872 ft | 350 kts | 19° |
| 2026-05-05 21:52 | 60.56718 | 11.27986 | 14514 ft | 356 kts | 19° |
| 2026-05-05 21:53 | 60.59012 | 11.30002 | 15091 ft | 362 kts | 19° |
| 2026-05-05 21:53 | 60.61335 | 11.32050 | 15791 ft | 365 kts | 19° |
| 2026-05-05 21:53 | 60.63674 | 11.34117 | 16520 ft | 367 kts | 19° |
| 2026-05-05 21:53 | 60.66027 | 11.36199 | 17204 ft | 371 kts | 18° |
| 2026-05-05 21:54 | 60.68404 | 11.38303 | 17863 ft | 375 kts | 18° |
| 2026-05-05 21:54 | 60.70805 | 11.40430 | 18433 ft | 378 kts | 18° |
| 2026-05-05 21:54 | 60.73243 | 11.42593 | 18881 ft | 385 kts | 17° |
| 2026-05-05 21:54 | 60.75763 | 11.44419 | 19292 ft | 382 kts | 3° |
| 2026-05-05 21:55 | 60.78388 | 11.44827 | 19817 ft | 379 kts | 355° |
| 2026-05-05 21:55 | 60.81039 | 11.45054 | 20326 ft | 383 kts | 355° |
| 2026-05-05 21:55 | 60.83725 | 11.45305 | 20798 ft | 389 kts | 355° |
| 2026-05-05 21:55 | 60.86447 | 11.45589 | 21311 ft | 394 kts | 356° |
| 2026-05-05 21:56 | 60.86486 | 11.45593 | 21321 ft | 394 kts | 356° |
| 2026-05-05 21:56 | 60.88482 | 11.45820 | 21635 ft | 398 kts | 356° |
| 2026-05-05 21:56 | 60.91261 | 11.46156 | 22119 ft | 402 kts | 356° |
| 2026-05-05 21:57 | 60.94062 | 11.46505 | 22582 ft | 405 kts | 356° |
| 2026-05-05 21:57 | 60.96892 | 11.46860 | 23050 ft | 409 kts | 355° |
| 2026-05-05 21:57 | 60.99749 | 11.47219 | 23473 ft | 414 kts | 355° |
| 2026-05-05 21:57 | 61.02633 | 11.47582 | 23826 ft | 417 kts | 355° |
| 2026-05-05 21:58 | 61.05537 | 11.47947 | 24209 ft | 419 kts | 355° |
| 2026-05-05 21:58 | 61.08456 | 11.48290 | 24572 ft | 420 kts | 354° |
| 2026-05-05 21:58 | 61.11382 | 11.48398 | 24899 ft | 422 kts | 352° |
| 2026-05-05 21:58 | 61.14327 | 11.48369 | 25234 ft | 424 kts | 351° |
| 2026-05-05 21:59 | 61.17286 | 11.48310 | 25579 ft | 427 kts | 351° |
| 2026-05-05 21:59 | 61.20263 | 11.48266 | 25917 ft | 430 kts | 351° |
| 2026-05-05 21:59 | 61.23266 | 11.48248 | 26281 ft | 432 kts | 351° |
| 2026-05-05 21:59 | 61.26272 | 11.48252 | 26750 ft | 431 kts | 352° |
| 2026-05-05 22:00 | 61.29269 | 11.48267 | 27260 ft | 430 kts | 351° |
| 2026-05-05 22:00 | 61.32255 | 11.48282 | 27723 ft | 430 kts | 351° |
| 2026-05-05 22:00 | 61.35269 | 11.48290 | 27825 ft | 434 kts | 351° |
| 2026-05-05 22:00 | 61.38282 | 11.48301 | 27845 ft | 431 kts | 351° |
| 2026-05-05 22:01 | 61.41282 | 11.48314 | 27840 ft | 430 kts | 351° |
| 2026-05-05 22:01 | 61.44270 | 11.48324 | 27902 ft | 430 kts | 352° |
| 2026-05-05 22:01 | 61.47272 | 11.48330 | 27872 ft | 432 kts | 352° |
| 2026-05-05 22:01 | 61.50287 | 11.48337 | 27845 ft | 433 kts | 352° |
| 2026-05-05 22:02 | 61.53304 | 11.48346 | 27856 ft | 434 kts | 352° |
| 2026-05-05 22:02 | 61.56320 | 11.48356 | 27857 ft | 434 kts | 352° |
| 2026-05-05 22:02 | 61.59346 | 11.48366 | 27845 ft | 435 kts | 352° |
| 2026-05-05 22:02 | 61.62373 | 11.48373 | 27844 ft | 435 kts | 352° |
| 2026-05-05 22:03 | 61.65396 | 11.48383 | 27838 ft | 434 kts | 352° |
| 2026-05-05 22:03 | 61.68418 | 11.48396 | 27846 ft | 434 kts | 352° |
| 2026-05-05 22:03 | 61.71413 | 11.48411 | 27829 ft | 426 kts | 352° |
| 2026-05-05 22:03 | 61.74330 | 11.48434 | 27637 ft | 415 kts | 352° |
| 2026-05-05 22:04 | 61.77195 | 11.48448 | 27346 ft | 408 kts | 353° |
| 2026-05-05 22:04 | 61.80019 | 11.48455 | 26914 ft | 404 kts | 353° |
| 2026-05-05 22:04 | 61.82818 | 11.48460 | 26490 ft | 400 kts | 353° |
| 2026-05-05 22:04 | 61.85598 | 11.48464 | 26059 ft | 397 kts | 353° |
| 2026-05-05 22:05 | 61.88344 | 11.48470 | 25633 ft | 393 kts | 353° |
| 2026-05-05 22:05 | 61.90077 | 11.48474 | 25380 ft | 391 kts | 353° |
| 2026-05-05 22:05 | 61.92347 | 11.48479 | 25017 ft | 389 kts | 353° |
| 2026-05-05 22:05 | 61.95048 | 11.48487 | 24614 ft | 386 kts | 353° |
| 2026-05-05 22:06 | 61.97720 | 11.48496 | 24205 ft | 383 kts | 353° |
| 2026-05-05 22:06 | 62.00369 | 11.48466 | 23809 ft | 378 kts | 351° |
| 2026-05-05 22:06 | 62.02948 | 11.48074 | 23605 ft | 367 kts | 348° |
| 2026-05-05 22:06 | 62.05469 | 11.47492 | 23241 ft | 362 kts | 348° |
| 2026-05-05 22:07 | 62.07961 | 11.46851 | 22763 ft | 360 kts | 348° |
| 2026-05-05 22:07 | 62.10436 | 11.46213 | 22371 ft | 357 kts | 349° |
| 2026-05-05 22:07 | 62.11545 | 11.45931 | 22185 ft | 355 kts | 349° |
| 2026-05-05 22:07 | 62.14025 | 11.45314 | 21786 ft | 352 kts | 349° |
| 2026-05-05 22:08 | 62.16455 | 11.44722 | 21392 ft | 350 kts | 349° |
| 2026-05-05 22:08 | 62.18863 | 11.44145 | 20996 ft | 348 kts | 350° |
| 2026-05-05 22:08 | 62.21112 | 11.43612 | 20625 ft | 345 kts | 350° |
| 2026-05-05 22:08 | 62.23520 | 11.43044 | 20240 ft | 343 kts | 351° |
| 2026-05-05 22:09 | 62.25886 | 11.42487 | 19846 ft | 341 kts | 351° |
| 2026-05-05 22:09 | 62.28243 | 11.41932 | 19466 ft | 340 kts | 351° |
| 2026-05-05 22:09 | 62.30589 | 11.41378 | 19077 ft | 338 kts | 351° |
| 2026-05-05 22:09 | 62.32914 | 11.40830 | 18705 ft | 336 kts | 351° |
| 2026-05-05 22:10 | 62.35237 | 11.40282 | 18328 ft | 334 kts | 351° |
| 2026-05-05 22:10 | 62.37543 | 11.39738 | 17942 ft | 333 kts | 351° |
| 2026-05-05 22:10 | 62.39833 | 11.39198 | 17544 ft | 330 kts | 351° |
| 2026-05-05 22:10 | 62.42107 | 11.38660 | 17158 ft | 327 kts | 351° |
| 2026-05-05 22:11 | 62.44363 | 11.38124 | 16790 ft | 324 kts | 351° |
| 2026-05-05 22:11 | 62.46595 | 11.37592 | 16420 ft | 322 kts | 351° |
| 2026-05-05 22:11 | 62.48820 | 11.37063 | 16065 ft | 320 kts | 351° |
| 2026-05-05 22:11 | 62.51029 | 11.36537 | 15691 ft | 319 kts | 351° |
| 2026-05-05 22:12 | 62.53225 | 11.36012 | 15330 ft | 317 kts | 351° |
| 2026-05-05 22:12 | 62.55414 | 11.35489 | 14969 ft | 315 kts | 351° |
| 2026-05-05 22:12 | 62.57592 | 11.34968 | 14605 ft | 314 kts | 350° |
| 2026-05-05 22:12 | 62.59755 | 11.34450 | 14256 ft | 312 kts | 351° |
| 2026-05-05 22:13 | 62.61915 | 11.33932 | 13894 ft | 311 kts | 351° |
| 2026-05-05 22:13 | 62.64059 | 11.33416 | 13523 ft | 310 kts | 351° |
| 2026-05-05 22:13 | 62.66190 | 11.32904 | 13168 ft | 307 kts | 350° |
| 2026-05-05 22:13 | 62.68307 | 11.32393 | 12818 ft | 305 kts | 349° |
| 2026-05-05 22:14 | 62.70385 | 11.31889 | 12461 ft | 303 kts | 350° |
| 2026-05-05 22:14 | 62.72479 | 11.31383 | 12130 ft | 301 kts | 351° |
| 2026-05-05 22:14 | 62.74554 | 11.30881 | 11775 ft | 299 kts | 350° |
| 2026-05-05 22:14 | 62.76611 | 11.30382 | 11432 ft | 297 kts | 350° |
| 2026-05-05 22:15 | 62.78659 | 11.29882 | 11095 ft | 295 kts | 350° |
| 2026-05-05 22:15 | 62.80692 | 11.29387 | 10746 ft | 294 kts | 349° |
| 2026-05-05 22:15 | 62.82717 | 11.28896 | 10402 ft | 292 kts | 349° |
| 2026-05-05 22:15 | 62.84730 | 11.28479 | 10260 ft | 285 kts | 351° |
| 2026-05-05 22:16 | 62.86680 | 11.28180 | 10125 ft | 278 kts | 352° |
| 2026-05-05 22:16 | 62.88585 | 11.27910 | 10025 ft | 270 kts | 352° |
| 2026-05-05 22:16 | 62.90437 | 11.27646 | 9913 ft | 264 kts | 351° |
| 2026-05-05 22:16 | 62.92251 | 11.27381 | 9684 ft | 261 kts | 351° |
| 2026-05-05 22:17 | 62.94062 | 11.27110 | 9527 ft | 259 kts | 351° |
| 2026-05-05 22:17 | 62.95869 | 11.26835 | 9283 ft | 262 kts | 352° |
| 2026-05-05 22:17 | 62.97702 | 11.26553 | 9001 ft | 264 kts | 351° |
| 2026-05-05 22:17 | 62.99529 | 11.26272 | 8735 ft | 262 kts | 352° |
| 2026-05-05 22:18 | 63.01348 | 11.25994 | 8468 ft | 261 kts | 352° |
| 2026-05-05 22:18 | 63.03160 | 11.25714 | 8177 ft | 261 kts | 351° |
| 2026-05-05 22:18 | 63.04966 | 11.25435 | 7904 ft | 260 kts | 351° |
| 2026-05-05 22:18 | 63.06764 | 11.25157 | 7635 ft | 258 kts | 352° |
| 2026-05-05 22:19 | 63.08555 | 11.24879 | 7375 ft | 257 kts | 351° |
| 2026-05-05 22:19 | 63.10335 | 11.24596 | 7105 ft | 256 kts | 351° |
| 2026-05-05 22:19 | 63.12111 | 11.24318 | 6830 ft | 253 kts | 352° |
| 2026-05-05 22:19 | 63.13859 | 11.24051 | 6572 ft | 251 kts | 351° |
| 2026-05-05 22:20 | 63.15599 | 11.23786 | 6323 ft | 249 kts | 351° |
| 2026-05-05 22:20 | 63.17335 | 11.23512 | 6070 ft | 251 kts | 351° |
| 2026-05-05 22:20 | 63.19084 | 11.23236 | 5761 ft | 252 kts | 351° |
| 2026-05-05 22:20 | 63.20831 | 11.22963 | 5523 ft | 251 kts | 351° |
| 2026-05-05 22:21 | 63.22574 | 11.22688 | 5264 ft | 250 kts | 351° |
| 2026-05-05 22:21 | 63.24308 | 11.22416 | 4996 ft | 250 kts | 351° |
| 2026-05-05 22:21 | 63.26037 | 11.22145 | 4735 ft | 248 kts | 351° |
| 2026-05-05 22:21 | 63.27758 | 11.21872 | 4514 ft | 247 kts | 351° |
| 2026-05-05 22:22 | 63.29448 | 11.21607 | 4330 ft | 238 kts | 351° |
| 2026-05-05 22:22 | 63.31069 | 11.21354 | 4200 ft | 231 kts | 352° |
| 2026-05-05 22:22 | 63.32669 | 11.21273 | 4065 ft | 231 kts | 355° |
| 2026-05-05 22:22 | 63.34257 | 11.21298 | 3972 ft | 225 kts | 356° |
| 2026-05-05 22:23 | 63.35804 | 11.21310 | 3854 ft | 221 kts | 355° |
| 2026-05-05 22:23 | 63.37350 | 11.21325 | 3673 ft | 224 kts | 355° |
| 2026-05-05 22:23 | 63.38904 | 11.21332 | 3430 ft | 220 kts | 355° |
| 2026-05-05 22:23 | 63.40407 | 11.21337 | 3194 ft | 213 kts | 355° |
| 2026-05-05 22:24 | 63.41844 | 11.21033 | 2940 ft | 201 kts | 341° |
| 2026-05-05 22:24 | 63.43074 | 11.19928 | 2717 ft | 181 kts | 324° |
| 2026-05-05 22:24 | 63.44027 | 11.18240 | 2495 ft | 173 kts | 312° |
| 2026-05-05 22:24 | 63.44794 | 11.16208 | 2243 ft | 168 kts | 302° |
| 2026-05-05 22:25 | 63.45342 | 11.14033 | 2006 ft | 154 kts | 290° |
| 2026-05-05 22:25 | 63.45624 | 11.11785 | 1819 ft | 145 kts | 280° |
| 2026-05-05 22:25 | 63.45721 | 11.09650 | 1573 ft | 134 kts | 272° |
| 2026-05-05 22:25 | 63.45736 | 11.07571 | 1420 ft | 132 kts | 271° |
| 2026-05-05 22:26 | 63.45740 | 11.05578 | 1106 ft | 130 kts | 271° |
| 2026-05-05 22:26 | 63.45742 | 11.03532 | 740 ft | 127 kts | 271° |
| 2026-05-05 22:26 | 63.45728 | 11.01613 | 604 ft | 139 kts | 271° |
| 2026-05-05 22:26 | 63.45737 | 10.99277 | 586 ft | 149 kts | 272° |
| 2026-05-05 22:27 | 63.45754 | 10.97079 | 377 ft | 137 kts | 270° |
| 2026-05-05 22:27 | 63.45748 | 10.94972 | 160 ft | 132 kts | 271° |
| 2026-05-05 22:27 | 63.45762 | 10.93016 | 48 ft | 114 kts | 270° |
| 2026-05-05 22:27 | 63.45763 | 10.91716 | 37 ft | 53 kts | 270° |
| 2026-05-05 22:28 | 63.45763 | 10.91025 | 34 ft | 41 kts | 270° |
| 2026-05-05 22:28 | 63.45718 | 10.90484 | 31 ft | 25 kts | 240° |
| 2026-05-05 22:28 | 63.45620 | 10.90387 | 30 ft | 13 kts | 155° |
| 2026-05-05 22:28 | 63.45598 | 10.90494 | 32 ft | 12 kts | 92° |
| 2026-05-05 22:29 | 63.45597 | 10.90741 | 34 ft | 20 kts | 90° |
| 2026-05-05 22:29 | 63.45597 | 10.90768 | 34 ft | 0 kts | 90° |
| 2026-05-05 22:30 | 63.45597 | 10.90773 | 34 ft | 1 kts | 90° |
| 2026-05-05 22:30 | 63.45597 | 10.90780 | 34 ft | 1 kts | 90° |
| 2026-05-05 22:31 | 63.45597 | 10.90783 | 31 ft | 1 kts | 90° |
| 2026-05-05 22:31 | 63.45597 | 10.90791 | 32 ft | 0 kts | 90° |
| 2026-05-05 22:31 | 63.45597 | 10.90793 | 32 ft | 0 kts | 90° |
| 2026-05-05 22:32 | 63.45597 | 10.90800 | 32 ft | 0 kts | 90° |
| 2026-05-05 22:32 | 63.45597 | 10.90807 | 33 ft | 0 kts | 90° |
| 2026-05-05 22:33 | 63.45597 | 10.90813 | 33 ft | 0 kts | 90° |
| 2026-05-05 22:33 | 63.45597 | 10.90820 | 34 ft | 0 kts | 90° |
| 2026-05-05 22:33 | 63.45597 | 10.90826 | 34 ft | 0 kts | 90° |
| 2026-05-05 22:33 | 63.45597 | 10.90830 | 34 ft | 0 kts | 90° |
| 2026-05-05 22:34 | 63.45597 | 10.90831 | 34 ft | 0 kts | 90° |
| 2026-05-05 22:34 | 63.45597 | 10.90836 | 34 ft | 0 kts | 90° |
| 2026-05-05 22:34 | 63.45597 | 10.90845 | 34 ft | 1 kts | 90° |
| 2026-05-05 22:34 | 63.45597 | 10.90859 | 34 ft | 1 kts | 90° |
| 2026-05-05 22:35 | 63.45597 | 10.90878 | 34 ft | 1 kts | 90° |
| 2026-05-05 22:35 | 63.45597 | 10.90903 | 34 ft | 2 kts | 90° |
| 2026-05-05 22:35 | 63.45597 | 10.90933 | 34 ft | 2 kts | 89° |
| 2026-05-05 22:35 | 63.45597 | 10.90992 | 34 ft | 8 kts | 90° |
| 2026-05-05 22:36 | 63.45597 | 10.91185 | 35 ft | 15 kts | 90° |
| 2026-05-05 22:36 | 63.45593 | 10.91402 | 38 ft | 13 kts | 107° |
| 2026-05-05 22:36 | 63.45529 | 10.91486 | 38 ft | 10 kts | 179° |
| 2026-05-05 22:36 | 63.45508 | 10.91486 | 38 ft | 0 kts | 180° |